sensor_id;sensor_type;location;lat;lon;timestamp;P1;durP1;ratioP1;P2;durP2;ratioP2
29206;SDS011;16247;50.840;4.382;2023-01-24T00:00:30;55.85;;;30.05;;
29206;SDS011;16247;50.840;4.382;2023-01-24T00:02:56;50.72;;;30.10;;
29206;SDS011;16247;50.840;4.382;2023-01-24T00:05:22;55.22;;;31.77;;
29206;SDS011;16247;50.840;4.382;2023-01-24T00:07:48;53.47;;;30.48;;
29206;SDS011;16247;50.840;4.382;2023-01-24T00:10:16;54.65;;;30.13;;
29206;SDS011;16247;50.840;4.382;2023-01-24T00:12:44;53.20;;;31.20;;
29206;SDS011;16247;50.840;4.382;2023-01-24T00:15:10;54.38;;;29.55;;
29206;SDS011;16247;50.840;4.382;2023-01-24T00:17:36;59.50;;;31.42;;
29206;SDS011;16247;50.840;4.382;2023-01-24T00:20:03;55.75;;;30.35;;
29206;SDS011;16247;50.840;4.382;2023-01-24T00:24:57;55.05;;;30.20;;
29206;SDS011;16247;50.840;4.382;2023-01-24T00:27:23;51.70;;;28.45;;
29206;SDS011;16247;50.840;4.382;2023-01-24T00:29:49;53.88;;;28.77;;
29206;SDS011;16247;50.840;4.382;2023-01-24T00:32:14;51.72;;;28.55;;
29206;SDS011;16247;50.840;4.382;2023-01-24T00:34:40;52.33;;;29.65;;
29206;SDS011;16247;50.840;4.382;2023-01-24T00:37:07;52.53;;;29.80;;
29206;SDS011;16247;50.840;4.382;2023-01-24T00:45:12;52.25;;;28.70;;
29206;SDS011;16247;50.840;4.382;2023-01-24T00:50:26;49.38;;;26.55;;
29206;SDS011;16247;50.840;4.382;2023-01-24T00:56:14;47.92;;;26.05;;
29206;SDS011;16247;50.840;4.382;2023-01-24T00:58:41;46.15;;;27.05;;
29206;SDS011;16247;50.840;4.382;2023-01-24T01:01:10;49.40;;;28.45;;
29206;SDS011;16247;50.840;4.382;2023-01-24T01:03:35;47.85;;;27.08;;
29206;SDS011;16247;50.840;4.382;2023-01-24T01:06:04;51.08;;;28.58;;
29206;SDS011;16247;50.840;4.382;2023-01-24T01:08:33;47.45;;;27.13;;
29206;SDS011;16247;50.840;4.382;2023-01-24T01:10:59;56.10;;;27.85;;
29206;SDS011;16247;50.840;4.382;2023-01-24T01:13:27;49.60;;;27.90;;
29206;SDS011;16247;50.840;4.382;2023-01-24T01:16:00;48.67;;;28.15;;
29206;SDS011;16247;50.840;4.382;2023-01-24T01:18:26;49.83;;;27.52;;
29206;SDS011;16247;50.840;4.382;2023-01-24T01:20:52;46.97;;;26.83;;
29206;SDS011;16247;50.840;4.382;2023-01-24T01:23:18;50.42;;;27.52;;
29206;SDS011;16247;50.840;4.382;2023-01-24T01:25:45;47.25;;;27.00;;
29206;SDS011;16247;50.840;4.382;2023-01-24T01:28:11;51.45;;;29.67;;
29206;SDS011;16247;50.840;4.382;2023-01-24T01:30:37;49.90;;;27.95;;
29206;SDS011;16247;50.840;4.382;2023-01-24T01:33:03;51.60;;;28.13;;
29206;SDS011;16247;50.840;4.382;2023-01-24T01:35:28;50.00;;;28.05;;
29206;SDS011;16247;50.840;4.382;2023-01-24T01:37:54;52.17;;;28.88;;
29206;SDS011;16247;50.840;4.382;2023-01-24T01:40:23;50.03;;;28.55;;
29206;SDS011;16247;50.840;4.382;2023-01-24T01:42:56;47.58;;;26.50;;
29206;SDS011;16247;50.840;4.382;2023-01-24T01:48:41;48.92;;;26.80;;
29206;SDS011;16247;50.840;4.382;2023-01-24T01:54:23;48.45;;;25.55;;
29206;SDS011;16247;50.840;4.382;2023-01-24T01:56:58;47.85;;;26.98;;
29206;SDS011;16247;50.840;4.382;2023-01-24T01:59:43;43.05;;;23.33;;
29206;SDS011;16247;50.840;4.382;2023-01-24T02:02:22;43.85;;;25.05;;
29206;SDS011;16247;50.840;4.382;2023-01-24T02:04:55;50.30;;;26.50;;
29206;SDS011;16247;50.840;4.382;2023-01-24T02:07:32;42.90;;;22.85;;
29206;SDS011;16247;50.840;4.382;2023-01-24T02:10:04;43.33;;;24.15;;
29206;SDS011;16247;50.840;4.382;2023-01-24T02:12:35;40.60;;;23.27;;
29206;SDS011;16247;50.840;4.382;2023-01-24T02:15:07;45.53;;;24.70;;
29206;SDS011;16247;50.840;4.382;2023-01-24T02:17:54;44.25;;;24.48;;
29206;SDS011;16247;50.840;4.382;2023-01-24T02:20:31;42.03;;;23.08;;
29206;SDS011;16247;50.840;4.382;2023-01-24T02:23:19;37.38;;;22.10;;
29206;SDS011;16247;50.840;4.382;2023-01-24T02:31:11;37.17;;;23.02;;
29206;SDS011;16247;50.840;4.382;2023-01-24T02:33:39;39.25;;;23.63;;
29206;SDS011;16247;50.840;4.382;2023-01-24T02:38:55;41.88;;;22.80;;
29206;SDS011;16247;50.840;4.382;2023-01-24T02:41:24;37.97;;;22.52;;
29206;SDS011;16247;50.840;4.382;2023-01-24T02:43:53;42.30;;;24.50;;
29206;SDS011;16247;50.840;4.382;2023-01-24T02:46:23;37.53;;;21.40;;
29206;SDS011;16247;50.840;4.382;2023-01-24T02:48:51;42.28;;;24.23;;
29206;SDS011;16247;50.840;4.382;2023-01-24T02:51:17;44.25;;;24.60;;
29206;SDS011;16247;50.840;4.382;2023-01-24T02:54:01;41.97;;;24.55;;
29206;SDS011;16247;50.840;4.382;2023-01-24T02:56:27;41.20;;;23.35;;
29206;SDS011;16247;50.840;4.382;2023-01-24T02:59:11;46.45;;;24.23;;
29206;SDS011;16247;50.840;4.382;2023-01-24T03:01:37;42.15;;;23.88;;
29206;SDS011;16247;50.840;4.382;2023-01-24T03:04:02;40.53;;;23.40;;
29206;SDS011;16247;50.840;4.382;2023-01-24T03:06:34;44.92;;;23.98;;
29206;SDS011;16247;50.840;4.382;2023-01-24T03:08:59;40.63;;;22.38;;
29206;SDS011;16247;50.840;4.382;2023-01-24T03:11:39;41.17;;;23.63;;
29206;SDS011;16247;50.840;4.382;2023-01-24T03:14:05;43.97;;;24.42;;
29206;SDS011;16247;50.840;4.382;2023-01-24T03:16:49;39.17;;;23.20;;
29206;SDS011;16247;50.840;4.382;2023-01-24T03:19:33;39.13;;;22.35;;
29206;SDS011;16247;50.840;4.382;2023-01-24T03:22:17;41.75;;;23.98;;
29206;SDS011;16247;50.840;4.382;2023-01-24T03:25:01;40.90;;;24.35;;
29206;SDS011;16247;50.840;4.382;2023-01-24T03:27:45;41.67;;;23.13;;
29206;SDS011;16247;50.840;4.382;2023-01-24T03:30:30;43.00;;;24.08;;
29206;SDS011;16247;50.840;4.382;2023-01-24T03:33:14;43.47;;;23.63;;
29206;SDS011;16247;50.840;4.382;2023-01-24T03:35:58;39.10;;;22.60;;
29206;SDS011;16247;50.840;4.382;2023-01-24T03:41:10;42.53;;;22.23;;
29206;SDS011;16247;50.840;4.382;2023-01-24T03:43:36;41.63;;;23.83;;
29206;SDS011;16247;50.840;4.382;2023-01-24T03:46:02;42.78;;;22.83;;
29206;SDS011;16247;50.840;4.382;2023-01-24T03:48:27;41.65;;;22.92;;
29206;SDS011;16247;50.840;4.382;2023-01-24T03:50:59;40.30;;;22.63;;
29206;SDS011;16247;50.840;4.382;2023-01-24T03:53:44;42.15;;;24.73;;
29206;SDS011;16247;50.840;4.382;2023-01-24T03:56:09;39.25;;;22.08;;
29206;SDS011;16247;50.840;4.382;2023-01-24T03:58:35;40.20;;;22.88;;
29206;SDS011;16247;50.840;4.382;2023-01-24T04:01:02;40.67;;;23.45;;
29206;SDS011;16247;50.840;4.382;2023-01-24T04:03:27;42.67;;;24.27;;
29206;SDS011;16247;50.840;4.382;2023-01-24T04:05:53;40.75;;;24.40;;
29206;SDS011;16247;50.840;4.382;2023-01-24T04:08:19;42.38;;;24.42;;
29206;SDS011;16247;50.840;4.382;2023-01-24T04:10:44;37.50;;;21.98;;
29206;SDS011;16247;50.840;4.382;2023-01-24T04:13:10;41.55;;;24.73;;
29206;SDS011;16247;50.840;4.382;2023-01-24T04:15:36;38.58;;;22.48;;
29206;SDS011;16247;50.840;4.382;2023-01-24T04:18:03;39.53;;;21.88;;
29206;SDS011;16247;50.840;4.382;2023-01-24T04:20:30;39.50;;;22.05;;
29206;SDS011;16247;50.840;4.382;2023-01-24T04:23:01;44.92;;;23.70;;
29206;SDS011;16247;50.840;4.382;2023-01-24T04:25:28;36.03;;;20.45;;
29206;SDS011;16247;50.840;4.382;2023-01-24T04:27:54;35.88;;;21.63;;
29206;SDS011;16247;50.840;4.382;2023-01-24T04:30:20;40.05;;;22.90;;
29206;SDS011;16247;50.840;4.382;2023-01-24T04:32:45;39.50;;;22.67;;
29206;SDS011;16247;50.840;4.382;2023-01-24T04:35:15;40.55;;;22.35;;
29206;SDS011;16247;50.840;4.382;2023-01-24T04:37:43;37.45;;;21.15;;
29206;SDS011;16247;50.840;4.382;2023-01-24T04:40:09;43.65;;;22.55;;
29206;SDS011;16247;50.840;4.382;2023-01-24T04:42:37;38.35;;;23.48;;
29206;SDS011;16247;50.840;4.382;2023-01-24T04:45:03;35.75;;;21.88;;
29206;SDS011;16247;50.840;4.382;2023-01-24T04:47:29;41.22;;;22.52;;
29206;SDS011;16247;50.840;4.382;2023-01-24T04:49:56;45.83;;;23.63;;
29206;SDS011;16247;50.840;4.382;2023-01-24T04:52:22;35.42;;;22.95;;
29206;SDS011;16247;50.840;4.382;2023-01-24T04:54:47;38.17;;;21.85;;
29206;SDS011;16247;50.840;4.382;2023-01-24T04:57:13;40.55;;;24.35;;
29206;SDS011;16247;50.840;4.382;2023-01-24T04:59:39;38.17;;;22.48;;
29206;SDS011;16247;50.840;4.382;2023-01-24T05:02:05;38.15;;;22.45;;
29206;SDS011;16247;50.840;4.382;2023-01-24T05:04:30;43.63;;;24.15;;
29206;SDS011;16247;50.840;4.382;2023-01-24T05:06:56;43.10;;;23.85;;
29206;SDS011;16247;50.840;4.382;2023-01-24T05:09:22;40.00;;;23.27;;
29206;SDS011;16247;50.840;4.382;2023-01-24T05:11:47;32.22;;;19.55;;
29206;SDS011;16247;50.840;4.382;2023-01-24T05:14:13;40.20;;;22.30;;
29206;SDS011;16247;50.840;4.382;2023-01-24T05:16:39;41.67;;;22.60;;
29206;SDS011;16247;50.840;4.382;2023-01-24T05:19:07;38.60;;;23.20;;
29206;SDS011;16247;50.840;4.382;2023-01-24T05:21:32;42.20;;;24.10;;
29206;SDS011;16247;50.840;4.382;2023-01-24T05:24:00;37.83;;;23.13;;
29206;SDS011;16247;50.840;4.382;2023-01-24T05:26:27;40.95;;;22.95;;
29206;SDS011;16247;50.840;4.382;2023-01-24T05:28:53;38.97;;;22.58;;
29206;SDS011;16247;50.840;4.382;2023-01-24T05:31:20;39.20;;;22.52;;
29206;SDS011;16247;50.840;4.382;2023-01-24T05:34:01;38.97;;;22.88;;
29206;SDS011;16247;50.840;4.382;2023-01-24T05:36:30;42.17;;;24.02;;
29206;SDS011;16247;50.840;4.382;2023-01-24T05:38:58;41.33;;;23.33;;
29206;SDS011;16247;50.840;4.382;2023-01-24T05:41:28;42.63;;;23.98;;
29206;SDS011;16247;50.840;4.382;2023-01-24T05:43:53;39.30;;;23.55;;
29206;SDS011;16247;50.840;4.382;2023-01-24T05:46:21;40.40;;;23.85;;
29206;SDS011;16247;50.840;4.382;2023-01-24T05:48:47;38.80;;;22.85;;
29206;SDS011;16247;50.840;4.382;2023-01-24T05:51:15;42.40;;;24.55;;
29206;SDS011;16247;50.840;4.382;2023-01-24T05:53:47;41.60;;;24.17;;
29206;SDS011;16247;50.840;4.382;2023-01-24T05:56:19;45.05;;;26.08;;
29206;SDS011;16247;50.840;4.382;2023-01-24T05:58:58;38.95;;;24.27;;
29206;SDS011;16247;50.840;4.382;2023-01-24T06:01:26;43.25;;;25.15;;
29206;SDS011;16247;50.840;4.382;2023-01-24T06:03:52;41.40;;;24.77;;
29206;SDS011;16247;50.840;4.382;2023-01-24T06:06:20;42.45;;;25.60;;
29206;SDS011;16247;50.840;4.382;2023-01-24T06:09:03;43.50;;;26.50;;
29206;SDS011;16247;50.840;4.382;2023-01-24T06:14:17;41.22;;;25.27;;
29206;SDS011;16247;50.840;4.382;2023-01-24T06:16:44;43.28;;;25.95;;
29206;SDS011;16247;50.840;4.382;2023-01-24T06:19:16;46.17;;;26.38;;
29206;SDS011;16247;50.840;4.382;2023-01-24T06:21:44;44.97;;;25.80;;
29206;SDS011;16247;50.840;4.382;2023-01-24T06:24:24;43.28;;;26.23;;
29206;SDS011;16247;50.840;4.382;2023-01-24T06:29:27;43.22;;;26.48;;
29206;SDS011;16247;50.840;4.382;2023-01-24T06:37:21;48.53;;;26.05;;
29206;SDS011;16247;50.840;4.382;2023-01-24T06:39:59;49.38;;;27.52;;
29206;SDS011;16247;50.840;4.382;2023-01-24T06:42:25;46.17;;;27.85;;
29206;SDS011;16247;50.840;4.382;2023-01-24T06:44:51;48.33;;;27.60;;
29206;SDS011;16247;50.840;4.382;2023-01-24T06:47:19;47.22;;;26.85;;
29206;SDS011;16247;50.840;4.382;2023-01-24T06:49:44;47.40;;;26.27;;
29206;SDS011;16247;50.840;4.382;2023-01-24T06:54:59;51.92;;;27.88;;
29206;SDS011;16247;50.840;4.382;2023-01-24T06:57:27;51.00;;;27.95;;
29206;SDS011;16247;50.840;4.382;2023-01-24T06:59:52;52.20;;;28.00;;
29206;SDS011;16247;50.840;4.382;2023-01-24T07:02:18;46.85;;;26.45;;
29206;SDS011;16247;50.840;4.382;2023-01-24T07:04:46;50.28;;;28.58;;
29206;SDS011;16247;50.840;4.382;2023-01-24T07:07:12;52.38;;;28.58;;
29206;SDS011;16247;50.840;4.382;2023-01-24T07:09:43;45.65;;;26.05;;
29206;SDS011;16247;50.840;4.382;2023-01-24T07:12:11;54.05;;;28.65;;
29206;SDS011;16247;50.840;4.382;2023-01-24T07:23:35;53.63;;;30.42;;
29206;SDS011;16247;50.840;4.382;2023-01-24T07:33:59;60.15;;;30.23;;
29206;SDS011;16247;50.840;4.382;2023-01-24T07:39:04;59.10;;;31.38;;
29206;SDS011;16247;50.840;4.382;2023-01-24T07:41:57;60.88;;;31.20;;
29206;SDS011;16247;50.840;4.382;2023-01-24T07:44:24;56.40;;;30.83;;
29206;SDS011;16247;50.840;4.382;2023-01-24T07:46:52;54.80;;;28.98;;
29206;SDS011;16247;50.840;4.382;2023-01-24T07:49:51;56.42;;;31.40;;
29206;SDS011;16247;50.840;4.382;2023-01-24T07:52:34;55.67;;;30.83;;
29206;SDS011;16247;50.840;4.382;2023-01-24T07:55:08;58.35;;;31.67;;
29206;SDS011;16247;50.840;4.382;2023-01-24T08:00:10;59.38;;;32.35;;
29206;SDS011;16247;50.840;4.382;2023-01-24T08:02:57;60.97;;;32.72;;
29206;SDS011;16247;50.840;4.382;2023-01-24T08:05:32;56.47;;;31.20;;
29206;SDS011;16247;50.840;4.382;2023-01-24T08:08:08;57.75;;;31.95;;
29206;SDS011;16247;50.840;4.382;2023-01-24T08:10:37;58.33;;;31.50;;
29206;SDS011;16247;50.840;4.382;2023-01-24T08:15:39;55.63;;;29.38;;
29206;SDS011;16247;50.840;4.382;2023-01-24T08:18:06;58.13;;;31.10;;
29206;SDS011;16247;50.840;4.382;2023-01-24T08:20:38;57.83;;;31.38;;
29206;SDS011;16247;50.840;4.382;2023-01-24T08:23:08;57.05;;;32.53;;
29206;SDS011;16247;50.840;4.382;2023-01-24T08:25:38;55.45;;;31.20;;
29206;SDS011;16247;50.840;4.382;2023-01-24T08:28:04;61.42;;;33.33;;
29206;SDS011;16247;50.840;4.382;2023-01-24T08:30:33;58.67;;;30.23;;
29206;SDS011;16247;50.840;4.382;2023-01-24T08:33:03;61.25;;;32.92;;
29206;SDS011;16247;50.840;4.382;2023-01-24T08:35:50;56.70;;;30.95;;
29206;SDS011;16247;50.840;4.382;2023-01-24T08:38:21;61.05;;;31.30;;
29206;SDS011;16247;50.840;4.382;2023-01-24T08:41:02;58.60;;;31.02;;
29206;SDS011;16247;50.840;4.382;2023-01-24T08:43:33;56.67;;;30.45;;
29206;SDS011;16247;50.840;4.382;2023-01-24T08:46:08;62.75;;;33.72;;
29206;SDS011;16247;50.840;4.382;2023-01-24T08:48:34;63.63;;;32.55;;
29206;SDS011;16247;50.840;4.382;2023-01-24T08:53:40;57.88;;;32.35;;
29206;SDS011;16247;50.840;4.382;2023-01-24T08:56:06;57.90;;;31.92;;
29206;SDS011;16247;50.840;4.382;2023-01-24T08:58:34;62.55;;;31.63;;
29206;SDS011;16247;50.840;4.382;2023-01-24T09:01:09;61.80;;;32.42;;
29206;SDS011;16247;50.840;4.382;2023-01-24T09:03:42;58.60;;;32.72;;
29206;SDS011;16247;50.840;4.382;2023-01-24T09:06:11;57.47;;;32.45;;
29206;SDS011;16247;50.840;4.382;2023-01-24T09:08:41;60.90;;;33.22;;
29206;SDS011;16247;50.840;4.382;2023-01-24T09:11:08;58.65;;;31.45;;
29206;SDS011;16247;50.840;4.382;2023-01-24T09:13:36;53.63;;;30.55;;
29206;SDS011;16247;50.840;4.382;2023-01-24T09:16:34;61.13;;;32.38;;
29206;SDS011;16247;50.840;4.382;2023-01-24T09:19:01;59.60;;;31.90;;
29206;SDS011;16247;50.840;4.382;2023-01-24T09:21:28;53.05;;;29.88;;
29206;SDS011;16247;50.840;4.382;2023-01-24T09:23:54;59.70;;;31.70;;
29206;SDS011;16247;50.840;4.382;2023-01-24T09:26:21;53.50;;;29.45;;
29206;SDS011;16247;50.840;4.382;2023-01-24T09:28:52;58.08;;;31.30;;
29206;SDS011;16247;50.840;4.382;2023-01-24T09:31:22;50.80;;;28.67;;
29206;SDS011;16247;50.840;4.382;2023-01-24T09:33:48;57.85;;;31.77;;
29206;SDS011;16247;50.840;4.382;2023-01-24T09:39:53;56.45;;;30.58;;
29206;SDS011;16247;50.840;4.382;2023-01-24T09:48:49;53.92;;;29.83;;
29206;SDS011;16247;50.840;4.382;2023-01-24T09:51:26;48.97;;;26.98;;
29206;SDS011;16247;50.840;4.382;2023-01-24T09:53:57;46.00;;;26.58;;
29206;SDS011;16247;50.840;4.382;2023-01-24T10:01:51;47.20;;;25.85;;
29206;SDS011;16247;50.840;4.382;2023-01-24T10:04:30;51.13;;;26.67;;
29206;SDS011;16247;50.840;4.382;2023-01-24T10:27:00;38.65;;;23.35;;
29206;SDS011;16247;50.840;4.382;2023-01-24T10:29:35;36.10;;;22.27;;
29206;SDS011;16247;50.840;4.382;2023-01-24T10:32:04;35.88;;;22.33;;
29206;SDS011;16247;50.840;4.382;2023-01-24T10:34:39;38.65;;;23.33;;
29206;SDS011;16247;50.840;4.382;2023-01-24T10:39:34;41.22;;;24.73;;
29206;SDS011;16247;50.840;4.382;2023-01-24T10:42:00;37.38;;;21.98;;
29206;SDS011;16247;50.840;4.382;2023-01-24T10:44:34;37.05;;;22.92;;
29206;SDS011;16247;50.840;4.382;2023-01-24T10:49:53;39.03;;;22.55;;
29206;SDS011;16247;50.840;4.382;2023-01-24T10:52:28;39.30;;;22.50;;
29206;SDS011;16247;50.840;4.382;2023-01-24T10:54:55;38.88;;;22.85;;
29206;SDS011;16247;50.840;4.382;2023-01-24T11:03:02;37.13;;;22.40;;
29206;SDS011;16247;50.840;4.382;2023-01-24T11:05:54;37.42;;;22.88;;
29206;SDS011;16247;50.840;4.382;2023-01-24T11:20:45;32.20;;;20.45;;
29206;SDS011;16247;50.840;4.382;2023-01-24T11:23:23;33.13;;;19.75;;
29206;SDS011;16247;50.840;4.382;2023-01-24T11:26:02;35.03;;;21.00;;
29206;SDS011;16247;50.840;4.382;2023-01-24T11:28:59;34.60;;;21.23;;
29206;SDS011;16247;50.840;4.382;2023-01-24T11:35:45;34.70;;;20.55;;
29206;SDS011;16247;50.840;4.382;2023-01-24T11:38:54;33.40;;;20.20;;
29206;SDS011;16247;50.840;4.382;2023-01-24T14:31:52;46.15;;;27.23;;
29206;SDS011;16247;50.840;4.382;2023-01-24T15:03:45;45.50;;;24.75;;
29206;SDS011;16247;50.840;4.382;2023-01-24T15:18:00;44.03;;;25.55;;
29206;SDS011;16247;50.840;4.382;2023-01-24T16:56:49;41.40;;;24.40;;
29206;SDS011;16247;50.840;4.382;2023-01-24T17:45:59;34.15;;;20.92;;
29206;SDS011;16247;50.840;4.382;2023-01-24T17:48:29;37.25;;;21.40;;
29206;SDS011;16247;50.840;4.382;2023-01-24T17:51:24;36.55;;;21.75;;
29206;SDS011;16247;50.840;4.382;2023-01-24T17:54:19;34.53;;;21.80;;
29206;SDS011;16247;50.840;4.382;2023-01-24T17:56:46;38.22;;;22.27;;
29206;SDS011;16247;50.840;4.382;2023-01-24T17:59:13;40.60;;;20.88;;
29206;SDS011;16247;50.840;4.382;2023-01-24T18:14:38;39.08;;;21.30;;
29206;SDS011;16247;50.840;4.382;2023-01-24T18:17:06;33.65;;;21.00;;
29206;SDS011;16247;50.840;4.382;2023-01-24T18:19:34;37.03;;;20.38;;
29206;SDS011;16247;50.840;4.382;2023-01-24T18:22:43;35.03;;;21.98;;
29206;SDS011;16247;50.840;4.382;2023-01-24T18:28:16;37.17;;;21.65;;
29206;SDS011;16247;50.840;4.382;2023-01-24T18:30:43;37.25;;;20.55;;
29206;SDS011;16247;50.840;4.382;2023-01-24T18:38:19;36.20;;;23.05;;
29206;SDS011;16247;50.840;4.382;2023-01-24T18:40:52;37.90;;;20.90;;
29206;SDS011;16247;50.840;4.382;2023-01-24T18:43:37;38.47;;;23.02;;
29206;SDS011;16247;50.840;4.382;2023-01-24T18:46:10;34.20;;;20.83;;
29206;SDS011;16247;50.840;4.382;2023-01-24T18:48:43;39.90;;;22.80;;
29206;SDS011;16247;50.840;4.382;2023-01-24T18:51:13;38.63;;;21.93;;
29206;SDS011;16247;50.840;4.382;2023-01-24T18:53:41;38.00;;;21.60;;
29206;SDS011;16247;50.840;4.382;2023-01-24T18:56:13;38.75;;;22.50;;
29206;SDS011;16247;50.840;4.382;2023-01-24T18:58:45;39.78;;;21.48;;
29206;SDS011;16247;50.840;4.382;2023-01-24T19:01:27;39.97;;;22.55;;
29206;SDS011;16247;50.840;4.382;2023-01-24T19:03:54;37.83;;;22.65;;
29206;SDS011;16247;50.840;4.382;2023-01-24T19:06:27;38.20;;;22.13;;
29206;SDS011;16247;50.840;4.382;2023-01-24T19:11:51;41.38;;;23.48;;
29206;SDS011;16247;50.840;4.382;2023-01-24T19:14:24;41.40;;;24.63;;
29206;SDS011;16247;50.840;4.382;2023-01-24T19:17:08;39.10;;;22.45;;
29206;SDS011;16247;50.840;4.382;2023-01-24T19:19:45;42.63;;;22.60;;
29206;SDS011;16247;50.840;4.382;2023-01-24T19:24:53;44.53;;;23.70;;
29206;SDS011;16247;50.840;4.382;2023-01-24T19:27:20;42.75;;;25.40;;
29206;SDS011;16247;50.840;4.382;2023-01-24T19:29:50;43.03;;;24.50;;
29206;SDS011;16247;50.840;4.382;2023-01-24T19:32:16;45.20;;;24.23;;
29206;SDS011;16247;50.840;4.382;2023-01-24T19:34:46;40.10;;;24.95;;
29206;SDS011;16247;50.840;4.382;2023-01-24T19:37:12;41.47;;;24.15;;
29206;SDS011;16247;50.840;4.382;2023-01-24T19:39:39;44.17;;;25.37;;
29206;SDS011;16247;50.840;4.382;2023-01-24T19:42:05;46.88;;;26.50;;
29206;SDS011;16247;50.840;4.382;2023-01-24T19:44:32;45.58;;;25.88;;
29206;SDS011;16247;50.840;4.382;2023-01-24T19:47:00;44.47;;;26.67;;
29206;SDS011;16247;50.840;4.382;2023-01-24T19:52:14;42.25;;;24.45;;
29206;SDS011;16247;50.840;4.382;2023-01-24T19:54:43;45.72;;;27.13;;
29206;SDS011;16247;50.840;4.382;2023-01-24T19:57:13;45.58;;;26.08;;
29206;SDS011;16247;50.840;4.382;2023-01-24T19:59:40;42.58;;;25.75;;
29206;SDS011;16247;50.840;4.382;2023-01-24T20:02:08;43.67;;;25.33;;
29206;SDS011;16247;50.840;4.382;2023-01-24T20:07:27;42.08;;;24.98;;
29206;SDS011;16247;50.840;4.382;2023-01-24T20:10:14;44.35;;;24.88;;
29206;SDS011;16247;50.840;4.382;2023-01-24T20:12:43;60.95;;;32.58;;
29206;SDS011;16247;50.840;4.382;2023-01-24T20:15:31;46.85;;;25.77;;
29206;SDS011;16247;50.840;4.382;2023-01-24T20:18:08;42.08;;;25.55;;
29206;SDS011;16247;50.840;4.382;2023-01-24T20:20:55;41.42;;;25.65;;
29206;SDS011;16247;50.840;4.382;2023-01-24T20:23:31;40.78;;;24.25;;
29206;SDS011;16247;50.840;4.382;2023-01-24T20:28:37;44.67;;;26.08;;
29206;SDS011;16247;50.840;4.382;2023-01-24T20:31:18;42.53;;;25.23;;
29206;SDS011;16247;50.840;4.382;2023-01-24T20:34:13;46.25;;;26.80;;
29206;SDS011;16247;50.840;4.382;2023-01-24T20:36:41;46.60;;;27.65;;
29206;SDS011;16247;50.840;4.382;2023-01-24T20:39:13;48.67;;;27.98;;
29206;SDS011;16247;50.840;4.382;2023-01-24T20:44:34;51.85;;;27.42;;
29206;SDS011;16247;50.840;4.382;2023-01-24T20:47:10;50.13;;;28.17;;
29206;SDS011;16247;50.840;4.382;2023-01-24T21:01:48;51.55;;;29.42;;
29206;SDS011;16247;50.840;4.382;2023-01-24T21:04:20;54.03;;;28.80;;
29206;SDS011;16247;50.840;4.382;2023-01-24T21:12:50;53.65;;;28.40;;
29206;SDS011;16247;50.840;4.382;2023-01-24T21:15:16;46.75;;;26.63;;
29206;SDS011;16247;50.840;4.382;2023-01-24T21:17:45;45.20;;;27.00;;
29206;SDS011;16247;50.840;4.382;2023-01-24T21:20:17;45.22;;;26.80;;
29206;SDS011;16247;50.840;4.382;2023-01-24T21:22:51;45.13;;;25.70;;
29206;SDS011;16247;50.840;4.382;2023-01-24T21:28:01;48.05;;;27.25;;
29206;SDS011;16247;50.840;4.382;2023-01-24T21:30:30;51.95;;;29.52;;
29206;SDS011;16247;50.840;4.382;2023-01-24T21:33:10;49.35;;;27.98;;
29206;SDS011;16247;50.840;4.382;2023-01-24T21:35:44;46.47;;;25.90;;
29206;SDS011;16247;50.840;4.382;2023-01-24T21:38:32;52.72;;;28.25;;
29206;SDS011;16247;50.840;4.382;2023-01-24T21:43:51;50.80;;;27.08;;
29206;SDS011;16247;50.840;4.382;2023-01-24T21:46:24;50.65;;;28.13;;
29206;SDS011;16247;50.840;4.382;2023-01-24T21:48:53;49.30;;;28.63;;
29206;SDS011;16247;50.840;4.382;2023-01-24T21:51:39;54.40;;;29.40;;
29206;SDS011;16247;50.840;4.382;2023-01-24T21:54:22;53.25;;;30.30;;
29206;SDS011;16247;50.840;4.382;2023-01-24T21:57:03;54.50;;;29.67;;
29206;SDS011;16247;50.840;4.382;2023-01-24T21:59:50;53.95;;;29.65;;
29206;SDS011;16247;50.840;4.382;2023-01-24T22:02:37;52.70;;;28.70;;
29206;SDS011;16247;50.840;4.382;2023-01-24T22:05:35;49.10;;;28.08;;
29206;SDS011;16247;50.840;4.382;2023-01-24T22:10:33;51.50;;;27.65;;
29206;SDS011;16247;50.840;4.382;2023-01-24T22:13:07;50.70;;;28.10;;
29206;SDS011;16247;50.840;4.382;2023-01-24T22:15:36;48.05;;;27.48;;
29206;SDS011;16247;50.840;4.382;2023-01-24T22:18:09;47.38;;;26.27;;
29206;SDS011;16247;50.840;4.382;2023-01-24T22:20:39;47.00;;;26.27;;
29206;SDS011;16247;50.840;4.382;2023-01-24T22:26:31;46.67;;;25.65;;
29206;SDS011;16247;50.840;4.382;2023-01-24T22:29:11;46.00;;;25.48;;
29206;SDS011;16247;50.840;4.382;2023-01-24T22:31:52;44.95;;;25.30;;
29206;SDS011;16247;50.840;4.382;2023-01-24T22:34:30;49.70;;;27.58;;
29206;SDS011;16247;50.840;4.382;2023-01-24T22:40:31;44.53;;;24.88;;
29206;SDS011;16247;50.840;4.382;2023-01-24T22:43:04;45.70;;;25.88;;
29206;SDS011;16247;50.840;4.382;2023-01-24T22:45:40;48.03;;;26.90;;
29206;SDS011;16247;50.840;4.382;2023-01-24T22:48:14;49.08;;;27.15;;
29206;SDS011;16247;50.840;4.382;2023-01-24T22:50:43;52.95;;;27.98;;
29206;SDS011;16247;50.840;4.382;2023-01-24T22:53:15;47.38;;;26.42;;
29206;SDS011;16247;50.840;4.382;2023-01-24T22:55:43;47.83;;;26.15;;
29206;SDS011;16247;50.840;4.382;2023-01-24T22:58:13;48.78;;;26.13;;
29206;SDS011;16247;50.840;4.382;2023-01-24T23:00:40;45.22;;;27.63;;
29206;SDS011;16247;50.840;4.382;2023-01-24T23:03:14;48.60;;;27.58;;
29206;SDS011;16247;50.840;4.382;2023-01-24T23:05:43;48.33;;;28.80;;
29206;SDS011;16247;50.840;4.382;2023-01-24T23:10:40;50.97;;;28.38;;
29206;SDS011;16247;50.840;4.382;2023-01-24T23:13:07;50.75;;;26.65;;
29206;SDS011;16247;50.840;4.382;2023-01-24T23:15:53;53.75;;;28.17;;
29206;SDS011;16247;50.840;4.382;2023-01-24T23:18:37;51.40;;;26.48;;
29206;SDS011;16247;50.840;4.382;2023-01-24T23:21:24;52.00;;;27.92;;
29206;SDS011;16247;50.840;4.382;2023-01-24T23:24:01;47.00;;;26.23;;
29206;SDS011;16247;50.840;4.382;2023-01-24T23:26:30;47.83;;;25.52;;
29206;SDS011;16247;50.840;4.382;2023-01-24T23:31:36;49.15;;;27.27;;
29206;SDS011;16247;50.840;4.382;2023-01-24T23:34:05;53.33;;;28.98;;
29206;SDS011;16247;50.840;4.382;2023-01-24T23:37:01;48.70;;;27.63;;
29206;SDS011;16247;50.840;4.382;2023-01-24T23:39:27;50.08;;;26.25;;
29206;SDS011;16247;50.840;4.382;2023-01-24T23:41:57;46.97;;;26.30;;
29206;SDS011;16247;50.840;4.382;2023-01-24T23:44:31;45.47;;;25.50;;
29206;SDS011;16247;50.840;4.382;2023-01-24T23:52:22;54.70;;;28.17;;
29206;SDS011;16247;50.840;4.382;2023-01-24T23:54:56;48.13;;;27.02;;
29206;SDS011;16247;50.840;4.382;2023-01-24T23:57:49;44.08;;;25.67;;
